Airfield :
LOGIN :

Register | Disclaimer

   EN    FR    IT 

 










Legend :    VFR   Marginal VFR   IFR   Intensive IFR   Very Intensive IFR
Visi :
Ceiling :
>= 8 km
>= 3000ft
5 to 8 km
1000 to 3000 ft
1500m to 5 km
500 to 1000 ft
800 to 1500m
200 to 500 ft
< 800m
< 200 ft
Symbols :   Thunderstorms  Fog  Heavy snow  Heavy precipitations  Wind > 20 kt
SIGMETs :     Misc.  Thunderstorms  Icing  Turbulence  Mountain Waves  Volcanic Ashes







- Airport Elevation : 10 ft
- IATA code : AAL


EKYT - Aalborg

CURRENT METAR :
  • 171920Z AUTO 01005KT 340V050 9999 NCD M00/M05 Q1003

EXPIRED METARs :
  • 171850Z AUTO 01006KT 330V040 9999 BKN032/// 00/M05 Q1002
  • 171820Z AUTO 35008KT 310V020 9999 BKN033/// BKN039/// 00/M06 Q1002 R08L/CLRD//
  • 171750Z AUTO 35009KT 320V070 9999 SCT036/// M00/M06 Q1001 R08L/CLRD//
  • 171741Z 36009KT 310V030 CAVOK M00/M06 Q1001 R08L/CLRD//
  • 171720Z AUTO 35009KT 330V030 9999 SCT035/// M00/M06 Q1000 R26L/710195
  • 171650Z AUTO 35009KT 9999 SCT034/// M00/M05 Q1000 R26L/710195

TAF TAF EKYT
Valid from the 17 at 18:00 until the 18 at 18:00 UTC


171721Z 1718/1818 32008KT 9999 FEW030
No reported NOTAMs for that airfield.



MET'MAP, your aeronautical weather chart ! - Copyright ORBIFLY December 2007 - Disclaimer

ORBIFLY MET'MAP TEAM :

Programming & Development : Alexandra Zaïnal
Concept & Development : Baudouin d'Aumeries
Co-Development & Prog : Marc-Olivier Méhu
Technical & hardware support : Manuel Goepfert

Contact : metmap@orbifly.com




SOURCES & CREDITS :

   NOAA